Terminal Aerodrome Forecast
Issued by NWS

Home | Current Version | Previous Version | Graphics & Text | Print | Product List | Glossary On
Versions: 1 2 3 4 5 6 7 8 9 10 11 12 13 14 15 16 17 18 19 20 21 22 23 24 25 26 27 28 29
000
FTUS43 KOAX 242322
TAFCDR
TAF
KCDR 242322Z 2500/2524 03015G25KT P6SM VCTS SCT025CB BKN035
      TEMPO 2500/2502 VRB25G35KT 2SM -TSRAGR BKN015CB
     FM250300 33005KT 6SM -SHRA SCT007 OVC015
     FM250900 31005KT 4SM -DZ BR SCT003 OVC007
     FM251500 33005KT 6SM BR OVC015
     FM251800 34010KT P6SM VCTS BKN040CB=

USA.gov is the U.S. government's official web portal to all federal, state and local government web resources and services.